Startpagina
METAR-TAF:

METAR-TAF

Vliegvelden :

Longmont, Colorado, Verenigde Staten

breedte: 40-09-51N, lengte: 105-09-49W, hoogte: 1541 m

Actueel weer

Dit bericht is 17 minuten geleden gemaakt, om 12:55 UTC
Weinig wind
Temperatuur 19°C
Vochtigheid 83%
Druk 1026 hPa
Zicht: 11.3 km
Geheel bewolkt op 2400 ft

METAR: KLMO 171255Z AUTO 00000KT 7SM OVC024 19/16 A3029 RMK AO2 T01850155

Tijdstip: 07:12 (13:12 UTC)


TAF: ontbreekt

Waarnemingen en weersverwachtingen van meer dan 4000 vliegvelden (METAR en TAF).

De beschikbare stations zijn de gele en rode punten op de kaart.

Ga met uw muis naar het station om de naam te zien.

Klik dan om waarnemingen en weersverwachtingen te zien.

kaart wijzigen: klik op de groene knoppen met een zwart kruis om in te zoomen, op de groene knop met een streepje om uit te zoomen of op de groene pijlen voor aangrenzende kaarten.


METAR-TAF: